createdAt,value
2023-03-27T00:01:25.537Z,5.18
2023-03-27T00:03:53.485Z,5.82
2023-03-27T00:06:21.953Z,6.43
2023-03-27T00:08:51.097Z,6.97
2023-03-27T00:11:19.484Z,6.78
2023-03-27T00:13:51.142Z,7.88
2023-03-27T00:16:21.654Z,7.55
2023-03-27T00:18:49.231Z,8.35
2023-03-27T00:21:16.689Z,8.80
2023-03-27T00:23:43.899Z,10.25
2023-03-27T00:26:15.299Z,11.40
2023-03-27T00:28:42.657Z,10.77
2023-03-27T00:31:11.845Z,10.00
2023-03-27T00:33:39.441Z,9.93
2023-03-27T00:36:07.360Z,10.65
2023-03-27T00:38:34.658Z,10.80
2023-03-27T00:41:02.366Z,10.27
2023-03-27T00:43:34.068Z,10.00
2023-03-27T00:46:39.576Z,10.05
2023-03-27T00:51:36.654Z,10.73
2023-03-27T00:54:04.625Z,10.20
2023-03-27T00:56:33.911Z,9.60
2023-03-27T00:59:03.284Z,10.60
2023-03-27T01:01:31.298Z,11.65
2023-03-27T01:04:02.725Z,11.30
2023-03-27T01:06:30.534Z,11.95
2023-03-27T01:08:58.712Z,10.90
2023-03-27T01:12:04.296Z,11.13
2023-03-27T01:15:13.866Z,12.73
2023-03-27T01:17:59.820Z,11.82
2023-03-27T01:20:55.930Z,13.52
2023-03-27T01:23:59.425Z,13.75
2023-03-27T01:27:38.013Z,13.45
2023-03-27T01:30:25.054Z,14.23
2023-03-27T01:33:36.543Z,14.18
2023-03-27T01:36:18.203Z,13.73
2023-03-27T01:39:08.213Z,16.05
2023-03-27T01:41:42.206Z,15.05
2023-03-27T01:44:09.501Z,17.05
2023-03-27T01:46:53.795Z,16.77
2023-03-27T01:49:33.046Z,17.20
2023-03-27T01:52:04.988Z,17.40
2023-03-27T01:54:35.307Z,17.58
2023-03-27T01:57:29.052Z,18.60
2023-03-27T02:00:27.464Z,19.05
2023-03-27T02:03:38.864Z,18.35
2023-03-27T02:06:15.077Z,19.17
2023-03-27T02:09:05.805Z,19.15
2023-03-27T02:11:57.173Z,19.90
2023-03-27T02:14:29.012Z,19.90
2023-03-27T02:16:59.897Z,19.55
2023-03-27T02:19:34.816Z,17.00
2023-03-27T02:22:02.318Z,16.27
2023-03-27T02:24:43.513Z,17.33
2023-03-27T02:27:24.835Z,16.67
2023-03-27T02:30:17.008Z,17.90
2023-03-27T02:33:05.188Z,18.00
2023-03-27T02:36:01.121Z,16.50
2023-03-27T02:38:52.444Z,16.42
2023-03-27T02:41:30.605Z,16.48
2023-03-27T02:44:47.323Z,17.15
2023-03-27T02:47:45.909Z,18.08
2023-03-27T02:50:23.950Z,17.65
2023-03-27T02:52:58.933Z,17.77
2023-03-27T02:55:39.030Z,16.63
2023-03-27T02:58:14.945Z,17.60
2023-03-27T03:00:58.653Z,16.98
2023-03-27T03:04:04.132Z,19.05
2023-03-27T03:06:47.100Z,17.73
2023-03-27T03:09:15.033Z,17.95
2023-03-27T03:11:52.104Z,17.98
2023-03-27T03:14:23.264Z,17.20
2023-03-27T03:16:50.666Z,16.52
2023-03-27T03:19:17.898Z,20.52
2023-03-27T03:21:49.441Z,19.08
2023-03-27T03:24:17.693Z,17.90
2023-03-27T03:26:45.425Z,19.85
2023-03-27T03:29:14.234Z,20.10
2023-03-27T03:31:49.964Z,20.88
2023-03-27T03:34:22.592Z,21.05
2023-03-27T03:36:50.381Z,21.77
2023-03-27T03:39:23.926Z,22.83
2023-03-27T03:41:51.275Z,20.30
2023-03-27T03:44:18.612Z,19.35
2023-03-27T03:46:46.449Z,20.63
2023-03-27T03:49:17.295Z,21.58
2023-03-27T03:51:44.435Z,22.13
2023-03-27T03:54:11.962Z,24.40
2023-03-27T03:56:43.252Z,25.67
2023-03-27T03:59:11.881Z,24.90
2023-03-27T04:01:59.143Z,25.83
2023-03-27T04:04:30.825Z,27.75
2023-03-27T04:07:17.844Z,27.05
2023-03-27T04:09:47.608Z,25.48
2023-03-27T04:12:23.459Z,28.42
2023-03-27T04:14:57.226Z,27.33
2023-03-27T04:17:49.832Z,27.33
2023-03-27T04:20:17.513Z,27.58
2023-03-27T04:22:46.797Z,27.08
2023-03-27T04:25:17.332Z,26.15
2023-03-27T04:27:45.359Z,25.05
2023-03-27T04:30:22.243Z,25.30
2023-03-27T04:33:08.096Z,26.92
2023-03-27T04:35:42.570Z,24.45
2023-03-27T04:38:19.545Z,25.85
2023-03-27T04:40:50.291Z,25.05
2023-03-27T04:43:18.749Z,24.80
2023-03-27T04:45:48.167Z,25.75
2023-03-27T04:48:15.897Z,24.48
2023-03-27T04:50:49.432Z,23.73
2023-03-27T04:53:30.330Z,27.02
2023-03-27T04:55:58.103Z,23.48
2023-03-27T04:58:25.909Z,26.75
2023-03-27T05:00:56.439Z,27.58
2023-03-27T05:03:54.733Z,26.10
2023-03-27T05:06:33.054Z,25.95
2023-03-27T05:09:01.555Z,25.40
2023-03-27T05:11:49.613Z,25.70
2023-03-27T05:14:21.156Z,25.20
2023-03-27T05:16:50.680Z,24.08
2023-03-27T05:19:19.487Z,22.13
2023-03-27T05:24:20.031Z,21.85
2023-03-27T05:26:48.620Z,19.48
2023-03-27T05:29:16.816Z,21.55
2023-03-27T05:31:48.029Z,21.85
2023-03-27T05:34:34.714Z,22.33
2023-03-27T05:37:05.793Z,22.33
2023-03-27T05:39:36.921Z,23.98
2023-03-27T05:42:08.979Z,21.83
2023-03-27T05:44:36.333Z,24.77
2023-03-27T05:47:04.723Z,24.05
2023-03-27T05:49:34.106Z,24.95
2023-03-27T05:52:09.629Z,24.63
2023-03-27T05:54:37.237Z,24.83
2023-03-27T05:57:09.140Z,25.92
2023-03-27T05:59:38.529Z,24.70
2023-03-27T06:02:22.296Z,27.50
2023-03-27T06:04:59.119Z,28.55
2023-03-27T06:07:31.884Z,30.80
2023-03-27T06:10:04.611Z,32.08
2023-03-27T06:13:12.764Z,32.15
2023-03-27T06:15:53.720Z,32.90
2023-03-27T06:19:07.744Z,39.88
2023-03-27T06:21:43.188Z,36.28
2023-03-27T06:24:10.528Z,33.55
2023-03-27T06:26:37.945Z,35.90
2023-03-27T06:29:07.833Z,36.13
2023-03-27T06:31:36.385Z,36.20
2023-03-27T06:34:26.044Z,35.80
2023-03-27T06:37:08.416Z,34.63
2023-03-27T06:39:40.586Z,33.92
2023-03-27T06:42:08.876Z,33.70
2023-03-27T06:44:46.081Z,33.70
2023-03-27T06:47:44.515Z,34.30
2023-03-27T06:50:38.849Z,33.67
2023-03-27T06:53:19.626Z,31.52
2023-03-27T06:55:51.557Z,29.67
2023-03-27T06:58:19.445Z,30.33
2023-03-27T07:00:48.965Z,32.00
2023-03-27T07:03:22.679Z,30.17
2023-03-27T07:05:50.298Z,30.00
2023-03-27T07:08:23.682Z,31.23
2023-03-27T07:13:25.102Z,33.63
2023-03-27T07:15:54.205Z,29.30
2023-03-27T07:18:22.769Z,27.63
2023-03-27T07:20:52.451Z,34.40
2023-03-27T07:23:23.115Z,36.17
2023-03-27T07:26:00.613Z,33.03
2023-03-27T07:28:51.862Z,29.98
2023-03-27T07:31:36.435Z,31.38
2023-03-27T07:34:09.113Z,31.63
2023-03-27T07:36:57.106Z,33.00
2023-03-27T07:39:25.824Z,35.05
2023-03-27T07:41:53.536Z,33.92
2023-03-27T07:44:38.711Z,35.30
2023-03-27T07:47:08.531Z,36.67
2023-03-27T07:49:39.796Z,32.03
2023-03-27T07:52:09.219Z,36.20
2023-03-27T07:54:44.530Z,34.78
2023-03-27T07:57:18.642Z,34.53
2023-03-27T07:59:48.951Z,32.42
2023-03-27T08:02:25.349Z,33.50
2023-03-27T08:04:52.953Z,37.55
2023-03-27T08:07:22.720Z,32.33
2023-03-27T08:09:54.025Z,27.08
2023-03-27T08:12:22.859Z,24.85
2023-03-27T08:14:57.503Z,25.35
2023-03-27T08:17:28.123Z,25.35
2023-03-27T08:19:56.004Z,24.50
2023-03-27T08:22:25.575Z,32.88
2023-03-27T08:26:01.511Z,30.10
2023-03-27T08:28:36.922Z,31.88
2023-03-27T08:31:11.774Z,36.08
2023-03-27T08:36:12.091Z,31.92
2023-03-27T08:38:39.919Z,26.27
2023-03-27T08:44:15.673Z,13.10
2023-03-27T08:47:09.472Z,10.63
2023-03-27T08:49:48.225Z,8.88
2023-03-27T08:52:42.599Z,7.55
2023-03-27T08:55:22.864Z,6.60
2023-03-27T08:58:05.468Z,6.57
2023-03-27T09:00:39.976Z,6.15
2023-03-27T09:03:41.593Z,5.45
2023-03-27T09:07:06.229Z,5.25
2023-03-27T09:09:55.900Z,6.57
2023-03-27T09:12:40.938Z,7.63
2023-03-27T09:18:00.618Z,7.38
2023-03-27T09:20:34.801Z,8.00
2023-03-27T09:26:17.327Z,8.25
2023-03-27T09:29:26.768Z,7.15
2023-03-27T09:32:04.075Z,7.78
2023-03-27T09:34:34.984Z,9.05
2023-03-27T09:37:02.858Z,7.78
2023-03-27T09:39:34.035Z,8.20
2023-03-27T09:42:33.814Z,6.80
2023-03-27T09:45:04.766Z,6.32
2023-03-27T09:48:07.309Z,6.55
2023-03-27T09:50:47.471Z,7.47
2023-03-27T09:53:58.765Z,6.65
2023-03-27T09:56:29.983Z,6.85
2023-03-27T09:59:00.389Z,8.18
2023-03-27T10:01:30.746Z,7.82
2023-03-27T10:04:14.865Z,11.23
2023-03-27T10:06:48.897Z,8.10
2023-03-27T10:09:29.322Z,8.07
2023-03-27T10:12:05.592Z,9.30
2023-03-27T10:14:42.203Z,11.73
2023-03-27T10:17:32.405Z,10.52
2023-03-27T10:20:43.784Z,12.45
2023-03-27T10:23:49.997Z,12.60
2023-03-27T10:26:31.058Z,9.93
2023-03-27T10:29:01.999Z,9.35
2023-03-27T10:31:53.192Z,10.48
2023-03-27T10:34:58.109Z,11.85
2023-03-27T10:37:50.194Z,15.38
2023-03-27T10:40:39.121Z,12.80
2023-03-27T10:43:27.810Z,13.25
2023-03-27T10:45:59.275Z,15.18
2023-03-27T10:48:58.467Z,15.27
2023-03-27T10:51:57.508Z,15.90
2023-03-27T10:54:54.568Z,10.93
2023-03-27T10:57:27.733Z,12.32
2023-03-27T11:00:10.774Z,12.00
2023-03-27T11:02:49.308Z,11.75
2023-03-27T11:05:36.585Z,13.48
2023-03-27T11:08:19.459Z,11.13
2023-03-27T11:10:47.356Z,10.07
2023-03-27T11:13:27.988Z,7.82
2023-03-27T11:16:21.698Z,10.77
2023-03-27T11:19:46.661Z,11.32
2023-03-27T11:22:56.214Z,12.45
2023-03-27T11:25:48.305Z,7.80
2023-03-27T11:28:55.791Z,9.13
2023-03-27T11:32:10.947Z,9.77
2023-03-27T11:35:01.942Z,12.52
2023-03-27T11:37:53.000Z,16.95
2023-03-27T11:40:42.849Z,16.13
2023-03-27T11:43:17.351Z,19.08
2023-03-27T11:46:05.165Z,13.13
2023-03-27T11:49:07.067Z,17.30
2023-03-27T11:53:08.815Z,16.35
2023-03-27T11:56:23.730Z,16.08
2023-03-27T11:59:28.892Z,14.02
2023-03-27T12:02:22.275Z,13.07
2023-03-27T12:05:18.152Z,17.00
2023-03-27T12:08:21.368Z,18.85
2023-03-27T12:15:39.920Z,8.48
2023-03-27T12:19:21.209Z,7.30
2023-03-27T12:23:02.378Z,8.32
2023-03-27T12:26:46.827Z,11.68
2023-03-27T12:30:20.758Z,8.02
2023-03-27T12:33:27.305Z,13.18
2023-03-27T12:35:58.334Z,8.68
2023-03-27T12:38:31.340Z,7.95
2023-03-27T12:43:59.949Z,8.32
2023-03-27T12:46:37.812Z,7.57
2023-03-27T12:49:10.814Z,9.37
2023-03-27T12:51:51.982Z,9.45
2023-03-27T12:54:42.026Z,6.35
2023-03-27T12:57:44.197Z,6.40
2023-03-27T13:00:23.904Z,7.00
2023-03-27T13:03:23.289Z,6.28
2023-03-27T13:06:18.912Z,6.38
2023-03-27T13:09:06.969Z,8.07
2023-03-27T13:12:07.728Z,8.32
2023-03-27T13:15:09.769Z,6.63
2023-03-27T13:18:01.215Z,7.30
2023-03-27T13:21:08.731Z,7.70
2023-03-27T13:27:21.980Z,8.10
2023-03-27T13:29:51.838Z,6.82
2023-03-27T13:32:38.031Z,7.25
2023-03-27T13:35:33.991Z,5.68
2023-03-27T13:38:02.571Z,6.85
2023-03-27T13:40:46.205Z,7.00
2023-03-27T13:43:28.004Z,10.85
2023-03-27T13:46:05.184Z,11.23
2023-03-27T13:49:40.170Z,12.20
2023-03-27T13:52:54.285Z,8.35
2023-03-27T13:56:27.944Z,7.10
2023-03-27T13:59:38.740Z,6.55
2023-03-27T14:03:05.589Z,6.32
2023-03-27T14:06:11.922Z,7.65
2023-03-27T14:09:25.561Z,8.20
2023-03-27T14:12:29.349Z,5.82
2023-03-27T14:15:20.286Z,5.20
2023-03-27T14:19:12.319Z,7.60
2023-03-27T14:22:01.097Z,5.78
2023-03-27T14:25:09.082Z,5.45
2023-03-27T14:27:48.870Z,6.72
2023-03-27T14:30:28.918Z,5.63
2023-03-27T14:33:20.240Z,5.70
2023-03-27T14:36:31.020Z,5.80
2023-03-27T14:39:18.111Z,5.60
2023-03-27T14:41:56.644Z,5.57
2023-03-27T14:44:26.200Z,5.53
2023-03-27T14:47:14.892Z,5.90
2023-03-27T14:49:49.125Z,6.90
2023-03-27T14:52:35.303Z,5.93
2023-03-27T14:55:22.829Z,4.88
2023-03-27T14:58:11.295Z,4.97
2023-03-27T15:00:42.325Z,5.55
2023-03-27T15:03:14.365Z,5.95
2023-03-27T15:06:02.523Z,5.43
2023-03-27T15:08:39.523Z,7.43
2023-03-27T15:11:39.488Z,9.23
2023-03-27T15:14:29.214Z,7.20
2023-03-27T15:17:20.205Z,6.10
2023-03-27T15:19:51.003Z,7.55
2023-03-27T15:22:33.978Z,6.63
2023-03-27T15:25:44.633Z,6.00
2023-03-27T15:28:38.143Z,6.38
2023-03-27T15:31:05.776Z,8.55
2023-03-27T15:34:03.890Z,6.80
2023-03-27T15:36:35.645Z,7.90
2023-03-27T15:39:04.741Z,7.40
2023-03-27T15:41:36.423Z,7.22
2023-03-27T15:44:15.743Z,8.00
2023-03-27T15:46:51.369Z,6.88
2023-03-27T15:49:27.192Z,7.32
2023-03-27T15:51:56.776Z,7.65
2023-03-27T15:54:35.492Z,7.40
2023-03-27T15:57:14.839Z,6.70
2023-03-27T15:59:53.056Z,6.50
2023-03-27T16:02:23.728Z,7.38
2023-03-27T16:04:56.282Z,8.45
2023-03-27T16:07:47.046Z,7.22
2023-03-27T16:10:27.415Z,6.78
2023-03-27T16:13:02.948Z,6.13
2023-03-27T16:15:40.713Z,6.78
2023-03-27T16:18:24.969Z,6.35
2023-03-27T16:20:55.065Z,4.90
2023-03-27T16:23:26.667Z,5.68
2023-03-27T16:26:02.713Z,5.57
2023-03-27T16:28:33.906Z,6.80
2023-03-27T16:31:17.234Z,4.72
2023-03-27T16:33:46.294Z,4.60
2023-03-27T16:36:20.982Z,4.93
2023-03-27T16:38:49.086Z,4.07
2023-03-27T16:41:20.656Z,5.82
2023-03-27T16:43:57.512Z,3.75
2023-03-27T16:46:27.053Z,3.72
2023-03-27T16:48:56.327Z,3.83
2023-03-27T16:51:26.210Z,4.47
2023-03-27T16:53:53.668Z,4.60
2023-03-27T16:56:23.990Z,4.97
2023-03-27T16:58:52.006Z,5.60
2023-03-27T17:01:23.953Z,5.35
2023-03-27T17:03:51.962Z,5.40
2023-03-27T17:06:30.346Z,5.60
2023-03-27T17:08:58.012Z,5.93
2023-03-27T17:11:25.424Z,6.38
2023-03-27T17:13:55.585Z,5.65
2023-03-27T17:16:25.172Z,6.05
2023-03-27T17:18:54.067Z,9.35
2023-03-27T17:21:25.730Z,8.38
2023-03-27T17:23:54.342Z,6.50
2023-03-27T17:26:33.485Z,5.60
2023-03-27T17:29:06.039Z,5.53
2023-03-27T17:31:35.446Z,5.38
2023-03-27T17:34:02.920Z,4.90
2023-03-27T17:36:41.146Z,5.90
2023-03-27T17:39:12.849Z,4.53
2023-03-27T17:41:41.120Z,4.40
2023-03-27T17:44:11.695Z,4.60
2023-03-27T17:46:39.086Z,5.20
2023-03-27T17:49:06.412Z,4.22
2023-03-27T17:51:35.785Z,4.22
2023-03-27T17:54:04.900Z,4.90
2023-03-27T17:56:32.129Z,4.85
2023-03-27T17:59:00.811Z,5.00
2023-03-27T18:01:28.139Z,5.13
2023-03-27T18:03:59.350Z,5.70
2023-03-27T18:06:27.200Z,5.68
2023-03-27T18:08:54.454Z,5.13
2023-03-27T18:11:21.940Z,5.45
2023-03-27T18:13:52.911Z,5.20
2023-03-27T18:16:21.814Z,6.18
2023-03-27T18:18:51.038Z,6.65
2023-03-27T18:21:22.944Z,6.63
2023-03-27T18:23:53.758Z,6.32
2023-03-27T18:26:21.776Z,6.47
2023-03-27T18:28:49.091Z,5.90
2023-03-27T18:31:17.748Z,7.90
2023-03-27T18:33:45.448Z,7.30
2023-03-27T18:36:12.665Z,8.75
2023-03-27T18:38:40.834Z,12.20
2023-03-27T18:41:09.246Z,12.23
2023-03-27T18:43:37.806Z,9.77
2023-03-27T18:46:06.212Z,7.88
2023-03-27T18:48:34.123Z,7.13
2023-03-27T18:51:05.982Z,7.82
2023-03-27T18:53:33.909Z,8.05
2023-03-27T18:56:02.440Z,7.30
2023-03-27T18:58:30.780Z,8.85
2023-03-27T19:00:58.323Z,7.93
2023-03-27T19:03:30.359Z,8.25
2023-03-27T19:06:01.285Z,7.25
2023-03-27T19:08:28.621Z,7.57
2023-03-27T19:10:57.345Z,8.40
2023-03-27T19:13:43.555Z,8.40
2023-03-27T19:16:35.680Z,8.32
2023-03-27T19:19:26.921Z,8.65
2023-03-27T19:21:54.647Z,9.07
2023-03-27T19:24:48.305Z,9.43
2023-03-27T19:27:23.703Z,8.75
2023-03-27T19:29:53.763Z,11.10
2023-03-27T19:32:24.399Z,12.35
2023-03-27T19:34:54.303Z,12.48
2023-03-27T19:37:22.056Z,12.73
2023-03-27T19:39:52.234Z,12.25
2023-03-27T19:42:19.813Z,12.20
2023-03-27T19:44:47.032Z,13.05
2023-03-27T19:47:17.406Z,11.70
2023-03-27T19:49:44.659Z,12.75
2023-03-27T19:52:42.572Z,13.40
2023-03-27T19:55:10.053Z,12.75
2023-03-27T19:57:40.751Z,12.52
2023-03-27T20:00:13.351Z,12.90
2023-03-27T20:02:44.063Z,12.60
2023-03-27T20:05:11.461Z,13.13
2023-03-27T20:07:38.755Z,11.90
2023-03-27T20:10:07.791Z,12.77
2023-03-27T20:13:17.080Z,11.73
2023-03-27T20:15:51.825Z,11.00
2023-03-27T20:18:19.941Z,13.48
2023-03-27T20:21:00.978Z,13.27
2023-03-27T20:23:32.483Z,14.38
2023-03-27T20:26:02.303Z,15.88
2023-03-27T20:28:33.176Z,15.50
2023-03-27T20:31:05.856Z,17.02
2023-03-27T20:33:33.163Z,15.82
2023-03-27T20:36:01.736Z,16.80
2023-03-27T20:38:31.608Z,16.75
2023-03-27T20:41:03.923Z,15.43
2023-03-27T20:43:35.877Z,15.82
2023-03-27T20:46:03.770Z,14.60
2023-03-27T20:48:41.659Z,13.63
2023-03-27T20:51:16.155Z,13.25
2023-03-27T20:53:53.993Z,12.77
2023-03-27T20:56:22.378Z,13.88
2023-03-27T20:58:49.889Z,12.93
2023-03-27T21:01:19.498Z,11.90
2023-03-27T21:03:49.682Z,12.93
2023-03-27T21:06:19.902Z,12.32
2023-03-27T21:08:47.492Z,13.38
2023-03-27T21:11:14.648Z,12.68
2023-03-27T21:13:41.954Z,14.77
2023-03-27T21:16:09.888Z,14.85
2023-03-27T21:18:38.153Z,15.50
2023-03-27T21:21:06.185Z,16.48
2023-03-27T21:23:37.060Z,16.65
2023-03-27T21:26:05.662Z,16.73
2023-03-27T21:28:32.788Z,16.42
2023-03-27T21:31:03.592Z,15.30
2023-03-27T21:33:31.821Z,14.25
2023-03-27T21:35:59.249Z,14.77
2023-03-27T21:38:29.202Z,15.25
2023-03-27T21:40:56.850Z,17.70
2023-03-27T21:43:24.638Z,16.10
2023-03-27T21:45:54.816Z,17.38
2023-03-27T21:48:22.227Z,17.05
2023-03-27T21:50:49.445Z,17.40
2023-03-27T21:53:17.151Z,17.67
2023-03-27T21:55:46.342Z,16.35
2023-03-27T21:58:13.590Z,18.42
2023-03-27T22:00:40.929Z,17.98
2023-03-27T22:03:08.570Z,19.00
2023-03-27T22:05:37.992Z,18.17
2023-03-27T22:08:05.758Z,18.05
2023-03-27T22:10:36.279Z,18.02
2023-03-27T22:13:04.410Z,18.60
2023-03-27T22:15:31.973Z,18.00
2023-03-27T22:17:59.257Z,19.17
2023-03-27T22:20:27.129Z,19.77
2023-03-27T22:22:55.860Z,19.50
2023-03-27T22:25:25.797Z,18.27
2023-03-27T22:28:02.545Z,21.60
2023-03-27T22:30:30.824Z,22.13
2023-03-27T22:32:58.686Z,21.00
2023-03-27T22:35:28.709Z,20.85
2023-03-27T22:37:55.940Z,21.02
2023-03-27T22:40:23.101Z,22.73
2023-03-27T22:42:51.148Z,23.08
2023-03-27T22:45:18.320Z,19.98
2023-03-27T22:47:45.535Z,23.00
2023-03-27T22:50:12.717Z,18.98
2023-03-27T22:52:40.714Z,20.45
2023-03-27T22:55:08.884Z,20.25
2023-03-27T22:57:37.105Z,19.92
2023-03-27T23:00:06.913Z,22.00
2023-03-27T23:02:35.653Z,21.05
2023-03-27T23:05:04.142Z,20.15
2023-03-27T23:07:31.754Z,19.70
2023-03-27T23:09:58.977Z,20.73
2023-03-27T23:12:26.213Z,20.50
2023-03-27T23:14:53.759Z,20.17
2023-03-27T23:17:21.230Z,20.05
2023-03-27T23:19:48.472Z,20.42
2023-03-27T23:22:15.781Z,20.10
2023-03-27T23:24:42.988Z,20.08
2023-03-27T23:27:10.571Z,20.27
2023-03-27T23:29:37.811Z,18.90
2023-03-27T23:32:05.874Z,19.45
2023-03-27T23:34:33.116Z,20.00
2023-03-27T23:37:00.888Z,19.20
2023-03-27T23:39:29.157Z,20.73
2023-03-27T23:41:56.754Z,22.42
2023-03-27T23:44:23.968Z,22.08
2023-03-27T23:46:51.254Z,19.50
2023-03-27T23:49:18.501Z,21.30
2023-03-27T23:51:45.887Z,19.75
2023-03-27T23:54:13.103Z,18.67
2023-03-27T23:56:40.427Z,19.00
2023-03-27T23:59:07.660Z,20.05
